Time;durP1;ratioP1;P1;durP2;ratioP2;P2;SDS_P1;SDS_P2;PMS_P1;PMS_P2;Temp;Humidity;BMP_temperature;BMP_pressure;BME280_temperature;BME280_humidity;BME280_pressure;Samples;Min_cycle;Max_cycle;Signal;HPM_P1;HPM_P2
2023/09/07 00:00:54;;;;;;;13.40;7.90;;;;;;;;;;103798;1289;544929;-74
2023/09/07 00:04:37;;;;;;;13.20;8.10;;;;;;;;;;103454;1295;548094;-74
2023/09/07 00:08:08;;;;;;;13.60;8.20;;;;;;;;;;103786;1291;544977;-73
2023/09/07 00:11:47;;;;;;;12.10;7.70;;;;;;;;;;103747;1291;544838;-75
2023/09/07 00:15:26;;;;;;;16.90;7.50;;;;;;;;;;103903;1292;544983;-74
2023/09/07 00:19:04;;;;;;;12.10;6.60;;;;;;;;;;103753;1290;544978;-74
2023/09/07 00:22:38;;;;;;;12.00;7.30;;;;;;;;;;103749;1291;545133;-76
2023/09/07 00:26:16;;;;;;;11.40;7.90;;;;;;;;;;103661;1295;544750;-75
2023/09/07 00:29:53;;;;;;;12.00;6.30;;;;;;;;;;103806;1292;544806;-73
2023/09/07 00:33:31;;;;;;;12.30;7.00;;;;;;;;;;103603;1296;545154;-74
2023/09/07 00:37:09;;;;;;;14.40;7.20;;;;;;;;;;104218;1299;545393;-74
2023/09/07 00:40:46;;;;;;;13.10;7.80;;;;;;;;;;103575;1291;544806;-73
2023/09/07 00:44:24;;;;;;;13.50;7.50;;;;;;;;;;103812;1292;544972;-74
2023/09/07 00:48:02;;;;;;;13.50;7.30;;;;;;;;;;104500;1282;544762;-75
2023/09/07 00:51:39;;;;;;;14.90;7.70;;;;;;;;;;103767;1291;544943;-74
2023/09/07 00:55:16;;;;;;;11.70;7.90;;;;;;;;;;103690;1290;544958;-74
2023/09/07 00:58:58;;;;;;;12.90;7.50;;;;;;;;;;103757;1291;545364;-76
2023/09/07 01:02:29;;;;;;;12.70;7.60;;;;;;;;;;103820;1293;545261;-73
2023/09/07 01:06:14;;;;;;;11.20;7.50;;;;;;;;;;103836;1289;545410;-74
2023/09/07 01:09:52;;;;;;;13.00;8.40;;;;;;;;;;103758;1292;545466;-74
2023/09/07 01:13:27;;;;;;;12.60;7.50;;;;;;;;;;103744;1289;545008;-73
2023/09/07 01:17:05;;;;;;;15.20;8.00;;;;;;;;;;103722;1291;544746;-74
2023/09/07 01:20:42;;;;;;;22.80;8.50;;;;;;;;;;103842;1292;545383;-76
2023/09/07 01:24:20;;;;;;;14.90;9.60;;;;;;;;;;103739;1292;545619;-74
2023/09/07 01:27:57;;;;;;;14.50;8.70;;;;;;;;;;104117;1288;545021;-73
2023/09/07 01:31:36;;;;;;;16.10;8.80;;;;;;;;;;103675;1295;545722;-74
2023/09/07 01:35:12;;;;;;;15.30;8.60;;;;;;;;;;103831;1289;545521;-73
2023/09/07 01:38:49;;;;;;;14.00;8.20;;;;;;;;;;103774;1291;545318;-73
2023/09/07 01:42:27;;;;;;;16.80;9.40;;;;;;;;;;103885;1301;544773;-74
2023/09/07 01:46:04;;;;;;;13.00;8.10;;;;;;;;;;103765;1292;544983;-73
2023/09/07 01:49:41;;;;;;;13.90;8.00;;;;;;;;;;103925;1288;545315;-74
2023/09/07 01:53:19;;;;;;;16.00;8.20;;;;;;;;;;103783;1291;544780;-74
2023/09/07 01:56:56;;;;;;;13.60;8.60;;;;;;;;;;103775;1291;544742;-73
2023/09/07 02:00:38;;;;;;;15.80;8.60;;;;;;;;;;103816;1292;544893;-75
2023/09/07 02:04:11;;;;;;;12.60;8.10;;;;;;;;;;103625;1293;545620;-73
2023/09/07 02:07:52;;;;;;;13.50;7.60;;;;;;;;;;103843;1292;544827;-74
2023/09/07 02:11:26;;;;;;;13.30;7.60;;;;;;;;;;103787;1293;545098;-74
2023/09/07 02:15:04;;;;;;;13.50;8.00;;;;;;;;;;103771;1289;544610;-74
2023/09/07 02:18:45;;;;;;;13.20;8.00;;;;;;;;;;103991;1291;544787;-74
2023/09/07 02:22:19;;;;;;;13.30;7.90;;;;;;;;;;103766;1292;544971;-73
2023/09/07 02:25:57;;;;;;;13.90;7.90;;;;;;;;;;103888;1289;545907;-75
2023/09/07 02:29:34;;;;;;;15.00;7.70;;;;;;;;;;103582;1291;544722;-74
2023/09/07 02:33:11;;;;;;;11.90;7.80;;;;;;;;;;103871;1288;545037;-74
2023/09/07 02:36:48;;;;;;;12.60;7.50;;;;;;;;;;103780;1289;545023;-74
2023/09/07 02:40:26;;;;;;;13.80;7.40;;;;;;;;;;103922;1288;545202;-75
2023/09/07 02:44:04;;;;;;;12.40;8.40;;;;;;;;;;103794;1292;545481;-74
2023/09/07 02:47:41;;;;;;;14.30;8.70;;;;;;;;;;104078;1289;544993;-73
2023/09/07 02:51:18;;;;;;;14.20;8.10;;;;;;;;;;103751;1291;544908;-74
2023/09/07 02:54:55;;;;;;;14.00;7.70;;;;;;;;;;103824;1288;545957;-74
2023/09/07 02:58:33;;;;;;;12.10;7.60;;;;;;;;;;103761;1291;544908;-75
2023/09/07 03:02:12;;;;;;;14.20;8.80;;;;;;;;;;103715;1289;545563;-74
2023/09/07 03:05:48;;;;;;;13.10;8.00;;;;;;;;;;103946;1289;544780;-75
2023/09/07 03:09:22;;;;;;;11.90;7.30;;;;;;;;;;103978;1289;544798;-74
2023/09/07 03:13:05;;;;;;;11.80;7.10;;;;;;;;;;103763;1289;545055;-73
2023/09/07 03:16:38;;;;;;;14.60;7.60;;;;;;;;;;103945;1292;546117;-76
2023/09/07 03:20:27;;;;;;;17.90;8.10;;;;;;;;;;103501;1295;547949;-76
2023/09/07 03:24:04;;;;;;;17.60;7.80;;;;;;;;;;103581;1290;547963;-74
2023/09/07 03:27:37;;;;;;;17.20;7.30;;;;;;;;;;103782;1292;544772;-74
2023/09/07 03:31:19;;;;;;;17.60;8.10;;;;;;;;;;103600;1293;547924;-74
2023/09/07 03:34:51;;;;;;;18.90;8.30;;;;;;;;;;103735;1291;544944;-74
2023/09/07 03:38:29;;;;;;;16.50;8.10;;;;;;;;;;104094;1294;545418;-74
2023/09/07 03:42:05;;;;;;;19.50;9.00;;;;;;;;;;103594;1292;545731;-74
2023/09/07 03:45:43;;;;;;;15.50;8.50;;;;;;;;;;103725;1291;545364;-75
2023/09/07 03:49:21;;;;;;;20.20;8.70;;;;;;;;;;103798;1294;545017;-75
2023/09/07 03:53:04;;;;;;;14.60;9.00;;;;;;;;;;103539;1291;548308;-75
2023/09/07 03:56:36;;;;;;;14.30;8.30;;;;;;;;;;103842;1288;545044;-74
2023/09/07 04:00:14;;;;;;;13.50;7.70;;;;;;;;;;104112;1291;545890;-74
2023/09/07 04:03:51;;;;;;;13.90;8.00;;;;;;;;;;104005;1295;545239;-74
2023/09/07 04:07:28;;;;;;;15.40;8.00;;;;;;;;;;103852;1289;545490;-74
2023/09/07 04:11:06;;;;;;;14.40;7.40;;;;;;;;;;103646;1295;546115;-75
2023/09/07 04:14:44;;;;;;;15.10;8.00;;;;;;;;;;103754;1294;544810;-75
2023/09/07 04:18:21;;;;;;;13.90;6.50;;;;;;;;;;103676;1292;545118;-75
2023/09/07 04:21:58;;;;;;;15.00;7.20;;;;;;;;;;103828;1301;544999;-76
2023/09/07 04:25:36;;;;;;;15.60;8.40;;;;;;;;;;103842;1291;545746;-75
2023/09/07 04:29:13;;;;;;;12.90;7.70;;;;;;;;;;103780;1289;545325;-74
2023/09/07 04:32:50;;;;;;;13.90;7.40;;;;;;;;;;103654;1295;544754;-74
2023/09/07 04:36:28;;;;;;;16.30;7.60;;;;;;;;;;103858;1292;544773;-74
2023/09/07 04:40:06;;;;;;;17.00;8.40;;;;;;;;;;104064;1289;545610;-75
2023/09/07 04:43:48;;;;;;;20.10;7.90;;;;;;;;;;103524;1295;547981;-74
2023/09/07 04:47:20;;;;;;;16.40;7.90;;;;;;;;;;103805;1292;546221;-74
2023/09/07 04:50:58;;;;;;;19.50;8.60;;;;;;;;;;104158;1286;544769;-75
2023/09/07 04:54:35;;;;;;;16.30;8.80;;;;;;;;;;103611;1291;545957;-74
2023/09/07 04:58:13;;;;;;;21.10;8.60;;;;;;;;;;103942;1290;546263;-74
2023/09/07 05:01:52;;;;;;;16.20;8.20;;;;;;;;;;103621;1295;547927;-75
2023/09/07 05:05:28;;;;;;;14.50;7.60;;;;;;;;;;103606;1289;545950;-74
2023/09/07 05:09:05;;;;;;;12.90;7.10;;;;;;;;;;103692;1292;545423;-74
2023/09/07 05:12:43;;;;;;;14.00;8.60;;;;;;;;;;103756;1291;544995;-74
2023/09/07 05:16:20;;;;;;;18.40;9.10;;;;;;;;;;104011;1289;545270;-73
2023/09/07 05:19:57;;;;;;;18.40;9.00;;;;;;;;;;103827;1289;544731;-74
2023/09/07 05:23:35;;;;;;;17.80;8.60;;;;;;;;;;103864;1301;544983;-74
2023/09/07 05:27:12;;;;;;;15.30;8.40;;;;;;;;;;104042;1291;545070;-74
2023/09/07 05:30:50;;;;;;;15.70;8.00;;;;;;;;;;103514;1295;544902;-74
2023/09/07 05:34:27;;;;;;;14.70;8.40;;;;;;;;;;103809;1292;544878;-74
2023/09/07 05:38:06;;;;;;;17.50;8.90;;;;;;;;;;103727;1291;545101;-74
2023/09/07 05:41:42;;;;;;;14.70;9.70;;;;;;;;;;103835;1289;545102;-75
2023/09/07 05:45:20;;;;;;;20.50;10.00;;;;;;;;;;104161;1290;546116;-76
2023/09/07 05:48:57;;;;;;;19.50;10.10;;;;;;;;;;103814;1289;545314;-74
2023/09/07 05:52:36;;;;;;;17.50;9.80;;;;;;;;;;104097;1286;544902;-75
2023/09/07 05:56:12;;;;;;;22.10;9.70;;;;;;;;;;103958;1295;545156;-74
2023/09/07 05:59:56;;;;;;;18.00;9.90;;;;;;;;;;103631;1291;548012;-76
2023/09/07 06:03:27;;;;;;;18.80;10.20;;;;;;;;;;103771;1289;545021;-75
2023/09/07 06:07:05;;;;;;;18.20;9.50;;;;;;;;;;103601;1292;544888;-75
2023/09/07 06:10:42;;;;;;;17.70;9.80;;;;;;;;;;104061;1289;544813;-74
2023/09/07 06:14:25;;;;;;;18.60;10.00;;;;;;;;;;103529;1292;547946;-76
2023/09/07 06:17:54;;;;;;;19.40;9.70;;;;;;;;;;104713;1289;545517;-75
2023/09/07 06:21:33;;;;;;;17.00;9.70;;;;;;;;;;104686;1290;544820;-73
2023/09/07 06:25:11;;;;;;;16.80;9.10;;;;;;;;;;104110;1294;544790;-77
2023/09/07 06:28:54;;;;;;;17.80;10.40;;;;;;;;;;103791;1292;545268;-77
2023/09/07 06:32:32;;;;;;;16.20;9.30;;;;;;;;;;104107;1286;544774;-77
2023/09/07 06:36:09;;;;;;;17.20;10.30;;;;;;;;;;103626;1291;546060;-75
2023/09/07 06:39:47;;;;;;;13.50;8.90;;;;;;;;;;103737;1289;545343;-75
2023/09/07 06:43:24;;;;;;;14.50;9.30;;;;;;;;;;103925;1291;545941;-75
2023/09/07 06:47:01;;;;;;;19.20;10.10;;;;;;;;;;103783;1291;544755;-75
2023/09/07 06:50:39;;;;;;;15.60;10.00;;;;;;;;;;103802;1290;544901;-75
2023/09/07 06:54:16;;;;;;;16.20;10.40;;;;;;;;;;103665;1293;545642;-77
2023/09/07 06:57:55;;;;;;;18.30;9.70;;;;;;;;;;103818;1290;544757;-75
2023/09/07 07:01:31;;;;;;;16.00;8.90;;;;;;;;;;103794;1289;545410;-75
2023/09/07 07:05:09;;;;;;;13.50;8.60;;;;;;;;;;103814;1288;545058;-75
2023/09/07 07:08:46;;;;;;;14.00;8.10;;;;;;;;;;104407;1286;544925;-75
2023/09/07 07:12:34;;;;;;;15.90;8.40;;;;;;;;;;103472;1292;547921;-75
2023/09/07 07:16:01;;;;;;;13.90;7.60;;;;;;;;;;103798;1289;544956;-74
2023/09/07 07:19:39;;;;;;;13.50;7.80;;;;;;;;;;103757;1288;544884;-74
2023/09/07 07:23:16;;;;;;;13.20;7.60;;;;;;;;;;103710;1291;545083;-75
2023/09/07 07:26:54;;;;;;;12.90;6.80;;;;;;;;;;104350;1285;545606;-75
2023/09/07 07:30:34;;;;;;;11.60;7.60;;;;;;;;;;103756;1292;544793;-75
2023/09/07 07:34:09;;;;;;;29.70;17.40;;;;;;;;;;103789;1295;544987;-76
2023/09/07 07:37:52;;;;;;;32.00;19.60;;;;;;;;;;103459;1294;547867;-75
2023/09/07 07:41:24;;;;;;;47.10;26.10;;;;;;;;;;103763;1296;545059;-73
2023/09/07 07:45:01;;;;;;;25.20;12.60;;;;;;;;;;105879;1289;545108;-75
2023/09/07 07:48:35;;;;;;;23.60;14.30;;;;;;;;;;103959;1289;544893;-73
2023/09/07 07:52:18;;;;;;;11.70;6.70;;;;;;;;;;104714;1282;545566;-75
2023/09/07 07:55:56;;;;;;;11.70;6.50;;;;;;;;;;104029;1292;544791;-75
2023/09/07 07:59:33;;;;;;;18.20;9.60;;;;;;;;;;104073;1289;544911;-74
2023/09/07 08:03:10;;;;;;;37.50;21.10;;;;;;;;;;103717;1292;545365;-77
2023/09/07 08:06:48;;;;;;;10.80;6.20;;;;;;;;;;104863;1282;544963;-74
2023/09/07 08:10:25;;;;;;;32.40;18.60;;;;;;;;;;103811;1292;544959;-76
2023/09/07 08:14:03;;;;;;;62.90;40.00;;;;;;;;;;103971;1288;545607;-74
2023/09/07 08:17:41;;;;;;;50.80;32.50;;;;;;;;;;103779;1289;545355;-75
2023/09/07 08:21:18;;;;;;;22.90;12.20;;;;;;;;;;104071;1289;544918;-75
2023/09/07 08:25:02;;;;;;;60.30;37.60;;;;;;;;;;103460;1297;548519;-75
2023/09/07 08:28:33;;;;;;;102.30;80.00;;;;;;;;;;103788;1289;545394;-73
2023/09/07 08:32:11;;;;;;;191.00;122.90;;;;;;;;;;103792;1296;544993;-75
2023/09/07 08:35:51;;;;;;;33.20;23.20;;;;;;;;;;104398;1283;545702;-73
2023/09/07 08:39:26;;;;;;;47.50;32.20;;;;;;;;;;103707;1289;544996;-74
2023/09/07 08:43:02;;;;;;;17.80;11.10;;;;;;;;;;103838;1289;545461;-75
2023/09/07 08:46:46;;;;;;;20.10;13.40;;;;;;;;;;104010;1288;545811;-75
2023/09/07 08:50:23;;;;;;;47.90;30.50;;;;;;;;;;103738;1292;545371;-75
2023/09/07 08:54:07;;;;;;;34.50;20.00;;;;;;;;;;103498;1291;547817;-75
2023/09/07 08:57:37;;;;;;;18.20;10.30;;;;;;;;;;103793;1292;544966;-74
2023/09/07 09:01:15;;;;;;;61.80;38.40;;;;;;;;;;103684;1295;546071;-75
2023/09/07 09:04:53;;;;;;;67.80;41.20;;;;;;;;;;103654;1290;544725;-76
2023/09/07 09:08:40;;;;;;;42.70;24.60;;;;;;;;;;103707;1291;545145;-73
2023/09/07 09:12:11;;;;;;;17.40;10.60;;;;;;;;;;104103;1289;545142;-75
2023/09/07 09:15:49;;;;;;;21.90;12.20;;;;;;;;;;103650;1291;545310;-73
2023/09/07 09:19:32;;;;;;;10.80;6.50;;;;;;;;;;103878;1288;545404;-73
2023/09/07 09:23:04;;;;;;;20.20;13.20;;;;;;;;;;103730;1291;545891;-74
2023/09/07 09:26:37;;;;;;;32.30;21.60;;;;;;;;;;103689;1291;544803;-73
2023/09/07 09:30:16;;;;;;;16.80;10.30;;;;;;;;;;103706;1289;545153;-75
2023/09/07 09:33:52;;;;;;;23.60;13.80;;;;;;;;;;104003;1288;545107;-73
2023/09/07 09:37:30;;;;;;;20.00;10.70;;;;;;;;;;103856;1290;545015;-73
2023/09/07 09:41:09;;;;;;;10.60;5.60;;;;;;;;;;103617;1291;544879;-76
2023/09/07 09:44:45;;;;;;;15.60;7.70;;;;;;;;;;103651;1291;544951;-73
2023/09/07 09:48:21;;;;;;;12.90;7.10;;;;;;;;;;104340;1288;544697;-73
2023/09/07 09:52:05;;;;;;;12.80;6.60;;;;;;;;;;103713;1295;544855;-73
2023/09/07 09:55:42;;;;;;;13.20;7.60;;;;;;;;;;103757;1292;544965;-76
2023/09/07 09:59:25;;;;;;;11.40;5.90;;;;;;;;;;103460;1292;548379;-75
2023/09/07 10:02:59;;;;;;;12.00;6.60;;;;;;;;;;103855;1292;545010;-76
2023/09/07 10:06:59;;;;;;;9.60;4.30;;;;;;;;;;103764;1292;545344;-75
2023/09/07 10:10:19;;;;;;;11.00;5.50;;;;;;;;;;103752;1292;545583;-77
2023/09/07 10:13:58;;;;;;;10.40;6.20;;;;;;;;;;103767;1292;545924;-74
2023/09/07 10:17:35;;;;;;;10.50;5.70;;;;;;;;;;103894;1289;545912;-75
2023/09/07 10:21:12;;;;;;;9.30;5.70;;;;;;;;;;104007;1292;545027;-73
2023/09/07 10:24:57;;;;;;;22.50;13.50;;;;;;;;;;103796;1292;545856;-74
2023/09/07 10:28:27;;;;;;;13.70;8.50;;;;;;;;;;103724;1290;544936;-75
2023/09/07 10:32:08;;;;;;;11.70;6.00;;;;;;;;;;103735;1292;544829;-76
2023/09/07 10:35:43;;;;;;;12.30;6.60;;;;;;;;;;103748;1291;545165;-75
2023/09/07 10:39:20;;;;;;;11.10;6.40;;;;;;;;;;104246;1284;545930;-75
2023/09/07 10:43:04;;;;;;;10.80;5.80;;;;;;;;;;103909;1291;545008;-76
2023/09/07 10:46:34;;;;;;;11.00;5.20;;;;;;;;;;103982;1290;545513;-75
2023/09/07 10:50:13;;;;;;;10.30;5.20;;;;;;;;;;103771;1290;545325;-72
2023/09/07 10:53:49;;;;;;;11.20;5.90;;;;;;;;;;104123;1286;545756;-73
2023/09/07 10:57:27;;;;;;;10.30;5.10;;;;;;;;;;103983;1289;545351;-75
2023/09/07 11:01:05;;;;;;;10.90;5.90;;;;;;;;;;104119;1295;546199;-73
2023/09/07 11:04:42;;;;;;;11.30;6.30;;;;;;;;;;103828;1298;545555;-72
2023/09/07 11:08:19;;;;;;;15.70;9.70;;;;;;;;;;103740;1289;545238;-77
2023/09/07 11:11:56;;;;;;;9.50;5.80;;;;;;;;;;103749;1289;544962;-78
2023/09/07 11:15:35;;;;;;;9.50;5.20;;;;;;;;;;103532;1295;545345;-74
2023/09/07 11:19:12;;;;;;;11.40;6.60;;;;;;;;;;103646;1291;545785;-74
2023/09/07 11:22:49;;;;;;;11.10;5.90;;;;;;;;;;103660;1292;545073;-74
2023/09/07 11:26:27;;;;;;;9.70;5.50;;;;;;;;;;104076;1292;545450;-74
2023/09/07 11:30:07;;;;;;;12.80;6.10;;;;;;;;;;103742;1289;544754;-75
2023/09/07 11:33:41;;;;;;;9.00;5.70;;;;;;;;;;103759;1292;545599;-73
2023/09/07 11:37:22;;;;;;;10.60;5.50;;;;;;;;;;104084;1295;544885;-74
2023/09/07 11:40:56;;;;;;;10.50;5.90;;;;;;;;;;103770;1292;544861;-74
2023/09/07 11:44:33;;;;;;;12.00;5.50;;;;;;;;;;103760;1291;544773;-76
2023/09/07 11:48:12;;;;;;;10.50;5.80;;;;;;;;;;103755;1292;545323;-74
2023/09/07 11:51:49;;;;;;;11.00;5.40;;;;;;;;;;103801;1292;546127;-75
2023/09/07 11:55:26;;;;;;;11.00;6.10;;;;;;;;;;103969;1292;544851;-75
2023/09/07 11:59:03;;;;;;;9.60;4.90;;;;;;;;;;103468;1297;545134;-73
2023/09/07 12:02:41;;;;;;;12.00;5.80;;;;;;;;;;103838;1289;545065;-77
2023/09/07 12:06:18;;;;;;;14.50;8.00;;;;;;;;;;103697;1290;544987;-73
2023/09/07 12:09:57;;;;;;;10.90;5.30;;;;;;;;;;104233;1289;544737;-71
2023/09/07 12:13:29;;;;;;;9.90;5.90;;;;;;;;;;103809;1290;545355;-73
2023/09/07 12:17:12;;;;;;;10.30;6.20;;;;;;;;;;103928;1291;544907;-73
2023/09/07 12:20:55;;;;;;;10.30;5.00;;;;;;;;;;103957;1288;548128;-72
2023/09/07 12:24:27;;;;;;;10.10;5.80;;;;;;;;;;103605;1292;546111;-71
2023/09/07 12:28:04;;;;;;;11.60;5.90;;;;;;;;;;103773;1292;544739;-74
2023/09/07 12:31:42;;;;;;;10.10;5.90;;;;;;;;;;103791;1296;544716;-75
2023/09/07 12:35:20;;;;;;;10.30;5.50;;;;;;;;;;103485;1292;545517;-74
2023/09/07 12:39:01;;;;;;;9.50;4.70;;;;;;;;;;103716;1302;545406;-72
2023/09/07 12:42:34;;;;;;;10.50;5.70;;;;;;;;;;103965;1293;545740;-75
2023/09/07 12:46:17;;;;;;;19.00;10.30;;;;;;;;;;103547;1291;548043;-74
2023/09/07 12:49:49;;;;;;;29.60;19.20;;;;;;;;;;103985;1296;544821;-73
2023/09/07 12:53:27;;;;;;;44.60;27.60;;;;;;;;;;103968;1292;545431;-79
2023/09/07 12:57:04;;;;;;;29.90;17.70;;;;;;;;;;104312;1285;545188;-74
2023/09/07 13:00:42;;;;;;;12.10;7.10;;;;;;;;;;103660;1300;545079;-73
2023/09/07 13:04:19;;;;;;;32.50;19.90;;;;;;;;;;103676;1289;545503;-72
2023/09/07 13:07:59;;;;;;;22.40;15.00;;;;;;;;;;103718;1291;545379;-75
2023/09/07 13:11:33;;;;;;;33.50;19.60;;;;;;;;;;104541;1284;545481;-74
2023/09/07 13:15:11;;;;;;;10.00;5.60;;;;;;;;;;103699;1289;544784;-74
2023/09/07 13:18:49;;;;;;;9.70;4.80;;;;;;;;;;103753;1289;544941;-74
2023/09/07 13:22:26;;;;;;;11.10;5.70;;;;;;;;;;103541;1294;545772;-72
2023/09/07 13:26:03;;;;;;;13.70;7.60;;;;;;;;;;103768;1292;545342;-76
2023/09/07 13:29:42;;;;;;;10.10;6.80;;;;;;;;;;103624;1290;544916;-72
2023/09/07 13:33:19;;;;;;;9.20;5.10;;;;;;;;;;103653;1294;545509;-74
2023/09/07 13:36:57;;;;;;;9.20;5.20;;;;;;;;;;103687;1295;545105;-72
2023/09/07 13:40:34;;;;;;;17.80;11.50;;;;;;;;;;103613;1289;544981;-72
2023/09/07 13:44:11;;;;;;;17.80;11.70;;;;;;;;;;103738;1291;545938;-74
2023/09/07 13:47:48;;;;;;;11.40;5.80;;;;;;;;;;103722;1293;544959;-74
2023/09/07 13:51:26;;;;;;;10.10;5.40;;;;;;;;;;103793;1289;544744;-75
2023/09/07 13:55:04;;;;;;;10.60;4.80;;;;;;;;;;103791;1295;544897;-73
2023/09/07 13:58:41;;;;;;;10.00;5.60;;;;;;;;;;103701;1289;545157;-73
2023/09/07 14:02:18;;;;;;;8.60;4.20;;;;;;;;;;103678;1291;544780;-74
2023/09/07 14:05:56;;;;;;;8.40;4.30;;;;;;;;;;103739;1292;544992;-72
2023/09/07 14:09:33;;;;;;;9.40;4.30;;;;;;;;;;103790;1291;545710;-74
2023/09/07 14:13:11;;;;;;;10.70;4.20;;;;;;;;;;103691;1292;546059;-72
2023/09/07 14:16:50;;;;;;;8.90;4.60;;;;;;;;;;103902;1292;545075;-75
2023/09/07 14:20:25;;;;;;;9.40;4.50;;;;;;;;;;103764;1289;545394;-72
2023/09/07 14:24:04;;;;;;;8.30;4.90;;;;;;;;;;103732;1289;545436;-73
2023/09/07 14:27:42;;;;;;;7.30;4.00;;;;;;;;;;103658;1291;544957;-72
2023/09/07 14:31:18;;;;;;;9.20;4.70;;;;;;;;;;103693;1289;545028;-73
2023/09/07 14:34:56;;;;;;;8.40;4.90;;;;;;;;;;103730;1292;545014;-73
2023/09/07 14:38:44;;;;;;;10.80;5.00;;;;;;;;;;104013;1289;544956;-72
2023/09/07 14:42:19;;;;;;;8.70;4.30;;;;;;;;;;103464;1292;548122;-72
2023/09/07 14:45:48;;;;;;;8.30;4.10;;;;;;;;;;103559;1291;545044;-72
2023/09/07 14:49:26;;;;;;;9.50;4.30;;;;;;;;;;104109;1288;545668;-73
2023/09/07 14:53:02;;;;;;;8.50;4.90;;;;;;;;;;103718;1289;545864;-71
2023/09/07 14:56:40;;;;;;;9.80;5.00;;;;;;;;;;104396;1285;545433;-73
2023/09/07 15:00:18;;;;;;;8.70;4.40;;;;;;;;;;103708;1292;544881;-72
2023/09/07 15:03:55;;;;;;;9.90;4.10;;;;;;;;;;103737;1291;544749;-75
2023/09/07 15:07:35;;;;;;;10.80;4.90;;;;;;;;;;103559;1289;545242;-72
2023/09/07 15:11:12;;;;;;;8.00;4.20;;;;;;;;;;103998;1292;545518;-72
2023/09/07 15:14:49;;;;;;;9.60;4.70;;;;;;;;;;103846;1288;545524;-73
2023/09/07 15:18:26;;;;;;;8.10;4.60;;;;;;;;;;103705;1289;545011;-72
2023/09/07 15:22:03;;;;;;;9.70;4.50;;;;;;;;;;104154;1287;545187;-73
2023/09/07 15:25:40;;;;;;;9.60;4.90;;;;;;;;;;103716;1289;544864;-73
2023/09/07 15:29:18;;;;;;;8.60;5.20;;;;;;;;;;103746;1291;544928;-74
2023/09/07 15:32:55;;;;;;;8.70;5.00;;;;;;;;;;103745;1300;544978;-72
2023/09/07 15:36:32;;;;;;;8.40;5.00;;;;;;;;;;103837;1291;545928;-72
2023/09/07 15:40:10;;;;;;;9.20;5.00;;;;;;;;;;103617;1292;545352;-72
2023/09/07 15:43:47;;;;;;;8.90;5.10;;;;;;;;;;103740;1291;544936;-72
2023/09/07 15:47:25;;;;;;;9.90;5.20;;;;;;;;;;103639;1292;545138;-72
2023/09/07 15:51:02;;;;;;;9.10;4.90;;;;;;;;;;103855;1296;544845;-73
2023/09/07 15:54:36;;;;;;;8.80;4.90;;;;;;;;;;103732;1290;545009;-74
2023/09/07 15:58:19;;;;;;;8.90;4.90;;;;;;;;;;103774;1291;544977;-73
2023/09/07 16:01:57;;;;;;;10.00;5.30;;;;;;;;;;103777;1292;545384;-73
2023/09/07 16:05:34;;;;;;;10.20;5.60;;;;;;;;;;103817;1292;544950;-75
2023/09/07 16:09:11;;;;;;;9.80;5.90;;;;;;;;;;103816;1289;544734;-74
2023/09/07 16:12:48;;;;;;;9.50;5.70;;;;;;;;;;103835;1290;545923;-76
2023/09/07 16:16:27;;;;;;;8.80;5.60;;;;;;;;;;103757;1292;544787;-75
2023/09/07 16:20:00;;;;;;;11.50;5.90;;;;;;;;;;103980;1289;545268;-73
2023/09/07 16:23:43;;;;;;;10.70;6.10;;;;;;;;;;103432;1297;545619;-72
2023/09/07 16:27:25;;;;;;;10.00;5.90;;;;;;;;;;103466;1295;548464;-74
2023/09/07 16:30:58;;;;;;;10.90;6.20;;;;;;;;;;103723;1291;545941;-74
2023/09/07 16:34:35;;;;;;;11.20;7.20;;;;;;;;;;103783;1293;544906;-75
2023/09/07 16:38:14;;;;;;;10.80;7.30;;;;;;;;;;103713;1289;545021;-74
2023/09/07 16:41:50;;;;;;;11.50;7.50;;;;;;;;;;104229;1288;545535;-73
2023/09/07 16:45:27;;;;;;;14.80;7.90;;;;;;;;;;103939;1289;544714;-73
2023/09/07 16:49:05;;;;;;;14.80;8.80;;;;;;;;;;103984;1288;544825;-73
2023/09/07 16:52:43;;;;;;;13.20;8.30;;;;;;;;;;105699;1291;545103;-73
2023/09/07 16:56:17;;;;;;;15.30;8.40;;;;;;;;;;104284;1289;545616;-73
2023/09/07 16:59:59;;;;;;;13.70;8.20;;;;;;;;;;103670;1300;545429;-72
2023/09/07 17:03:42;;;;;;;17.00;9.00;;;;;;;;;;103517;1292;548141;-74
2023/09/07 17:07:14;;;;;;;18.40;8.50;;;;;;;;;;103711;1291;545240;-74
2023/09/07 17:10:52;;;;;;;15.00;8.30;;;;;;;;;;104256;1296;544861;-75
2023/09/07 17:14:29;;;;;;;15.50;7.00;;;;;;;;;;103841;1290;545039;-75
2023/09/07 17:18:08;;;;;;;15.90;7.70;;;;;;;;;;103766;1289;545575;-74
2023/09/07 17:21:45;;;;;;;12.60;6.60;;;;;;;;;;104030;1289;545028;-74
2023/09/07 17:25:42;;;;;;;15.80;6.30;;;;;;;;;;104672;1282;548150;-76
2023/09/07 17:28:59;;;;;;;12.20;6.70;;;;;;;;;;103729;1291;544843;-74
2023/09/07 17:32:37;;;;;;;11.20;5.90;;;;;;;;;;103757;1292;544774;-75
2023/09/07 17:36:18;;;;;;;13.30;6.00;;;;;;;;;;103738;1291;545025;-76
2023/09/07 17:39:53;;;;;;;11.40;5.70;;;;;;;;;;103843;1289;545895;-76
2023/09/07 17:43:25;;;;;;;14.30;5.80;;;;;;;;;;103916;1288;545234;-74
2023/09/07 17:47:07;;;;;;;11.20;5.60;;;;;;;;;;103651;1289;545312;-75
2023/09/07 17:50:51;;;;;;;11.70;6.20;;;;;;;;;;103598;1302;548229;-72
2023/09/07 17:54:22;;;;;;;9.70;5.50;;;;;;;;;;103744;1290;544961;-76
2023/09/07 17:58:00;;;;;;;12.20;6.20;;;;;;;;;;103773;1289;545046;-75
2023/09/07 18:01:37;;;;;;;14.00;6.90;;;;;;;;;;104635;1293;544956;-74
2023/09/07 18:05:20;;;;;;;15.00;7.20;;;;;;;;;;103734;1292;545330;-74
2023/09/07 18:08:52;;;;;;;13.60;7.10;;;;;;;;;;103498;1298;545091;-74
2023/09/07 18:12:30;;;;;;;15.00;8.50;;;;;;;;;;103625;1291;545713;-74
2023/09/07 18:16:07;;;;;;;15.20;9.40;;;;;;;;;;103714;1289;545433;-74
2023/09/07 18:20:11;;;;;;;16.90;10.20;;;;;;;;;;103619;1298;546390;-75
2023/09/07 18:23:26;;;;;;;16.10;10.20;;;;;;;;;;103824;1289;544733;-74
2023/09/07 18:26:59;;;;;;;14.40;9.60;;;;;;;;;;103767;1290;545268;-74
2023/09/07 18:30:40;;;;;;;15.60;10.10;;;;;;;;;;104193;1286;544855;-74
2023/09/07 18:34:15;;;;;;;15.00;10.00;;;;;;;;;;103767;1292;545998;-75
2023/09/07 18:37:52;;;;;;;16.80;10.70;;;;;;;;;;103835;1289;545456;-73
2023/09/07 18:41:30;;;;;;;16.70;10.90;;;;;;;;;;103743;1290;544813;-75
2023/09/07 18:45:08;;;;;;;18.30;11.30;;;;;;;;;;103914;1288;545058;-74
2023/09/07 18:48:45;;;;;;;17.20;11.10;;;;;;;;;;104050;1286;544906;-76
2023/09/07 18:52:22;;;;;;;17.40;10.30;;;;;;;;;;104312;1285;546384;-76
2023/09/07 18:56:06;;;;;;;16.00;9.60;;;;;;;;;;103723;1295;545167;-74
2023/09/07 18:59:39;;;;;;;17.00;10.50;;;;;;;;;;103753;1292;545228;-75
2023/09/07 19:03:15;;;;;;;15.90;10.50;;;;;;;;;;103690;1292;545427;-74
2023/09/07 19:06:52;;;;;;;14.90;9.70;;;;;;;;;;104168;1288;544984;-75
2023/09/07 19:10:32;;;;;;;17.60;9.60;;;;;;;;;;103772;1289;544770;-74
2023/09/07 19:14:03;;;;;;;16.10;9.90;;;;;;;;;;103745;1295;546288;-75
2023/09/07 19:17:48;;;;;;;16.00;10.30;;;;;;;;;;103701;1295;545347;-74
2023/09/07 19:21:26;;;;;;;16.30;10.70;;;;;;;;;;103799;1292;545439;-75
2023/09/07 19:25:03;;;;;;;19.30;10.80;;;;;;;;;;103741;1292;544942;-74
2023/09/07 19:28:40;;;;;;;20.50;11.60;;;;;;;;;;103680;1289;544674;-74
2023/09/07 19:32:19;;;;;;;19.20;10.60;;;;;;;;;;104018;1289;545990;-74
2023/09/07 19:35:55;;;;;;;18.60;10.70;;;;;;;;;;103861;1292;544981;-74
2023/09/07 19:39:34;;;;;;;20.30;10.00;;;;;;;;;;103778;1295;545000;-76
2023/09/07 19:43:06;;;;;;;18.40;10.60;;;;;;;;;;103819;1289;545003;-73
2023/09/07 19:46:49;;;;;;;18.40;10.90;;;;;;;;;;103797;1289;545063;-75
2023/09/07 19:50:26;;;;;;;17.80;9.20;;;;;;;;;;104164;1286;545714;-75
2023/09/07 19:54:04;;;;;;;16.10;9.00;;;;;;;;;;103834;1295;545037;-76
2023/09/07 19:57:41;;;;;;;16.40;9.40;;;;;;;;;;104219;1286;545619;-77
2023/09/07 20:01:19;;;;;;;17.00;9.20;;;;;;;;;;103702;1291;544989;-74
2023/09/07 20:04:56;;;;;;;16.10;9.50;;;;;;;;;;103774;1292;545660;-74
2023/09/07 20:08:34;;;;;;;14.10;7.90;;;;;;;;;;104039;1291;545445;-74
2023/09/07 20:12:10;;;;;;;14.10;8.30;;;;;;;;;;103839;1289;545122;-76
2023/09/07 20:15:49;;;;;;;14.40;8.70;;;;;;;;;;104013;1287;545374;-74
2023/09/07 20:19:39;;;;;;;16.60;9.20;;;;;;;;;;103731;1289;544955;-74
2023/09/07 20:23:09;;;;;;;15.00;8.90;;;;;;;;;;103594;1291;548092;-74
2023/09/07 20:26:41;;;;;;;13.30;7.90;;;;;;;;;;103746;1290;545229;-73
2023/09/07 20:30:20;;;;;;;13.40;8.10;;;;;;;;;;103700;1289;545544;-74
2023/09/07 20:34:01;;;;;;;15.80;8.60;;;;;;;;;;103601;1291;547823;-76
2023/09/07 20:37:33;;;;;;;13.50;8.30;;;;;;;;;;104101;1288;545058;-73
2023/09/07 20:41:30;;;;;;;14.60;8.70;;;;;;;;;;103684;1292;547905;-73
2023/09/07 20:44:48;;;;;;;16.70;8.00;;;;;;;;;;103720;1292;544971;-74